createdAt,value
2022-11-03T00:00:02.101Z,6.21
2022-11-03T00:00:22.164Z,6.21
2022-11-03T00:00:42.216Z,6.21
2022-11-03T00:01:02.277Z,6.21
2022-11-03T00:01:22.416Z,6.21
2022-11-03T00:01:42.486Z,6.21
2022-11-03T00:02:02.772Z,6.21
2022-11-03T00:02:22.727Z,6.26
2022-11-03T00:02:42.644Z,6.25
2022-11-03T00:03:02.755Z,6.29
2022-11-03T00:03:22.675Z,6.32
2022-11-03T00:03:42.747Z,6.33
2022-11-03T00:04:02.794Z,6.36
2022-11-03T00:04:22.863Z,6.36
2022-11-03T00:04:42.912Z,6.4
2022-11-03T00:05:02.977Z,6.39
2022-11-03T00:05:23.045Z,6.43
2022-11-03T00:05:43.122Z,6.42
2022-11-03T00:06:03.156Z,6.45
2022-11-03T00:06:23.218Z,6.45
2022-11-03T00:06:43.278Z,6.45
2022-11-03T00:07:03.349Z,6.43
2022-11-03T00:07:23.397Z,6.43
2022-11-03T00:07:43.445Z,6.45
2022-11-03T00:08:03.607Z,6.45
2022-11-03T00:08:23.596Z,6.45
2022-11-03T00:08:43.669Z,6.43
2022-11-03T00:09:03.724Z,6.43
2022-11-03T00:09:23.783Z,6.42
2022-11-03T00:09:43.824Z,6.43
2022-11-03T00:10:03.905Z,6.42
2022-11-03T00:10:23.958Z,6.42
2022-11-03T00:10:44.020Z,6.42
2022-11-03T00:11:04.082Z,6.45
2022-11-03T00:11:24.147Z,6.42
2022-11-03T00:11:44.219Z,6.4
2022-11-03T00:12:04.279Z,6.39
2022-11-03T00:12:24.322Z,6.42
2022-11-03T00:12:44.370Z,6.39
2022-11-03T00:13:04.923Z,6.42
2022-11-03T00:13:24.501Z,6.43
2022-11-03T00:13:44.548Z,6.42
2022-11-03T00:14:04.622Z,6.39
2022-11-03T00:14:24.660Z,6.42
2022-11-03T00:14:44.739Z,6.4
2022-11-03T00:15:04.803Z,6.38
2022-11-03T00:15:24.865Z,6.38
2022-11-03T00:15:44.924Z,6.38
2022-11-03T00:16:04.990Z,6.39
2022-11-03T00:16:25.040Z,6.39
2022-11-03T00:16:45.109Z,6.42
2022-11-03T00:17:05.163Z,6.42
2022-11-03T00:17:25.221Z,6.45
2022-11-03T00:17:45.293Z,6.45
2022-11-03T00:18:05.343Z,6.45
2022-11-03T00:18:25.402Z,6.45
2022-11-03T00:18:45.474Z,6.46
2022-11-03T00:19:05.573Z,6.49
2022-11-03T00:19:25.600Z,6.52
2022-11-03T00:19:45.623Z,6.53
2022-11-03T00:20:05.698Z,6.5
2022-11-03T00:20:25.759Z,6.53
2022-11-03T00:20:45.822Z,6.53
2022-11-03T00:21:05.871Z,6.5
2022-11-03T00:21:25.950Z,6.49
2022-11-03T00:21:46.014Z,6.48
2022-11-03T00:22:06.069Z,6.49
2022-11-03T00:22:26.125Z,6.48
2022-11-03T00:22:46.180Z,6.48
2022-11-03T00:23:06.574Z,6.52
2022-11-03T00:23:26.303Z,6.5
2022-11-03T00:23:46.355Z,6.5
2022-11-03T00:24:06.397Z,6.5
2022-11-03T00:24:26.488Z,6.52
2022-11-03T00:24:46.552Z,6.5
2022-11-03T00:25:06.619Z,6.53
2022-11-03T00:25:26.681Z,6.5
2022-11-03T00:25:46.735Z,6.53
2022-11-03T00:26:06.803Z,6.53
2022-11-03T00:26:26.851Z,6.53
2022-11-03T00:26:46.926Z,6.52
2022-11-03T00:27:06.996Z,6.53
2022-11-03T00:27:27.097Z,6.55
2022-11-03T00:27:47.182Z,6.56
2022-11-03T00:28:07.267Z,6.55
2022-11-03T00:28:27.329Z,6.55
2022-11-03T00:28:47.415Z,6.52
2022-11-03T00:29:07.487Z,6.55
2022-11-03T00:29:27.574Z,6.53
2022-11-03T00:29:47.627Z,6.52
2022-11-03T00:30:07.650Z,6.52
2022-11-03T00:30:27.741Z,6.55
2022-11-03T00:30:47.826Z,6.53
2022-11-03T00:31:07.839Z,6.52
2022-11-03T00:31:27.895Z,6.55
2022-11-03T00:31:47.974Z,6.55
2022-11-03T00:32:08.050Z,6.53
2022-11-03T00:32:28.101Z,6.56
2022-11-03T00:32:48.185Z,6.55
2022-11-03T00:33:08.621Z,6.55
2022-11-03T00:33:28.332Z,6.52
2022-11-03T00:33:48.400Z,6.55
2022-11-03T00:34:08.464Z,6.53
2022-11-03T00:34:28.510Z,6.5
2022-11-03T00:34:48.596Z,6.53
2022-11-03T00:35:08.659Z,6.5
2022-11-03T00:35:28.718Z,6.53
2022-11-03T00:35:48.800Z,6.5
2022-11-03T00:36:08.845Z,6.53
2022-11-03T00:36:28.915Z,6.49
2022-11-03T00:36:48.978Z,6.5
2022-11-03T00:37:09.055Z,6.52
2022-11-03T00:37:29.109Z,6.52
2022-11-03T00:37:49.176Z,6.52
2022-11-03T00:38:09.237Z,6.5
2022-11-03T00:38:29.285Z,6.49
2022-11-03T00:38:49.354Z,6.5
2022-11-03T00:39:09.439Z,6.5
2022-11-03T00:39:29.504Z,6.52
2022-11-03T00:39:49.567Z,6.5
2022-11-03T00:40:09.614Z,6.52
2022-11-03T00:40:29.680Z,6.52
2022-11-03T00:40:49.759Z,6.49
2022-11-03T00:41:09.834Z,6.49
2022-11-03T00:41:29.902Z,6.52
2022-11-03T00:41:49.965Z,6.5
2022-11-03T00:42:10.049Z,6.5
2022-11-03T00:42:30.097Z,6.53
2022-11-03T00:42:50.159Z,6.5
2022-11-03T00:43:10.222Z,6.49
2022-11-03T00:43:30.293Z,6.48
2022-11-03T00:43:50.348Z,6.46
2022-11-03T00:44:10.509Z,6.49
2022-11-03T00:44:30.481Z,6.45
2022-11-03T00:44:50.551Z,6.43
2022-11-03T00:45:10.615Z,6.45
2022-11-03T00:45:30.722Z,6.45
2022-11-03T00:45:50.739Z,6.43
2022-11-03T00:46:10.844Z,6.4
2022-11-03T00:46:30.865Z,6.39
2022-11-03T00:46:50.937Z,6.38
2022-11-03T00:47:10.987Z,6.36
2022-11-03T00:47:31.051Z,6.36
2022-11-03T00:47:51.134Z,6.35
2022-11-03T00:48:11.193Z,6.33
2022-11-03T00:48:31.248Z,6.33
2022-11-03T00:48:51.314Z,6.35
2022-11-03T00:49:11.385Z,6.33
2022-11-03T00:49:31.451Z,6.29
2022-11-03T00:49:51.519Z,6.31
2022-11-03T00:50:11.572Z,6.28
2022-11-03T00:50:31.653Z,6.29
2022-11-03T00:50:51.697Z,6.28
2022-11-03T00:51:11.765Z,6.28
2022-11-03T00:51:31.840Z,6.28
2022-11-03T00:51:51.895Z,6.28
2022-11-03T00:52:11.955Z,6.28
2022-11-03T00:52:32.025Z,6.26
2022-11-03T00:52:52.088Z,6.26
2022-11-03T00:53:12.155Z,6.26
2022-11-03T00:53:32.183Z,6.26
2022-11-03T00:53:52.235Z,6.26
2022-11-03T00:54:12.323Z,6.24
2022-11-03T00:54:32.385Z,6.26
2022-11-03T00:54:55.198Z,6.29
2022-11-03T00:55:12.526Z,6.29
2022-11-03T00:55:32.598Z,6.28
2022-11-03T00:55:52.658Z,6.25
2022-11-03T00:56:12.726Z,6.28
2022-11-03T00:56:32.798Z,6.28
2022-11-03T00:56:52.847Z,6.28
2022-11-03T00:57:12.909Z,6.26
2022-11-03T00:57:32.995Z,6.25
2022-11-03T00:57:53.041Z,6.24
2022-11-03T00:58:13.119Z,6.25
2022-11-03T00:58:33.180Z,6.22
2022-11-03T00:58:53.248Z,6.22
2022-11-03T00:59:13.319Z,6.25
2022-11-03T00:59:33.377Z,6.24
2022-11-03T00:59:53.437Z,6.22
2022-11-03T01:00:13.498Z,6.21
2022-11-03T01:00:33.554Z,6.21
2022-11-03T01:00:53.683Z,6.21
2022-11-03T01:01:13.827Z,6.21
2022-11-03T01:01:33.942Z,6.24
2022-11-03T01:01:53.931Z,6.21
2022-11-03T01:02:14.072Z,6.22
2022-11-03T01:02:34.008Z,6.21
2022-11-03T01:02:54.007Z,6.21
2022-11-03T01:03:14.067Z,6.21
2022-11-03T01:03:34.145Z,6.21
2022-11-03T01:03:54.215Z,6.22
2022-11-03T01:04:14.249Z,6.18
2022-11-03T01:04:34.306Z,6.21
2022-11-03T01:04:54.376Z,6.21
2022-11-03T01:05:14.440Z,6.19
2022-11-03T01:05:34.519Z,6.21
2022-11-03T01:05:54.559Z,6.21
2022-11-03T01:06:14.636Z,6.19
2022-11-03T01:06:34.691Z,6.19
2022-11-03T01:06:54.774Z,6.21
2022-11-03T01:07:14.833Z,6.18
2022-11-03T01:07:34.901Z,6.21
2022-11-03T01:07:55.066Z,6.17
2022-11-03T01:08:15.019Z,6.21
2022-11-03T01:08:35.084Z,6.18
2022-11-03T01:08:55.163Z,6.17
2022-11-03T01:09:15.205Z,6.18
2022-11-03T01:09:35.290Z,6.14
2022-11-03T01:09:55.348Z,6.15
2022-11-03T01:10:15.402Z,6.15
2022-11-03T01:10:35.472Z,6.15
2022-11-03T01:10:55.522Z,6.15
2022-11-03T01:11:15.603Z,6.14
2022-11-03T01:11:35.668Z,6.12
2022-11-03T01:11:55.723Z,6.14
2022-11-03T01:12:15.787Z,6.15
2022-11-03T01:12:35.863Z,6.17
2022-11-03T01:12:55.914Z,6.18
2022-11-03T01:13:15.976Z,6.18
2022-11-03T01:13:36.036Z,6.18
2022-11-03T01:13:56.120Z,6.18
2022-11-03T01:14:16.179Z,6.19
2022-11-03T01:14:36.251Z,6.17
2022-11-03T01:14:56.302Z,6.15
2022-11-03T01:15:16.358Z,6.11
2022-11-03T01:15:36.418Z,6.08
2022-11-03T01:15:56.492Z,6.08
2022-11-03T01:16:16.564Z,6.05
2022-11-03T01:16:36.619Z,6.02
2022-11-03T01:16:56.688Z,6.05
2022-11-03T01:17:16.751Z,6.05
2022-11-03T01:17:36.814Z,6.01
2022-11-03T01:17:56.868Z,6.01
2022-11-03T01:18:16.947Z,5.97
2022-11-03T01:18:37.018Z,5.94
2022-11-03T01:18:57.095Z,5.94
2022-11-03T01:19:17.134Z,5.93
2022-11-03T01:19:37.184Z,5.94
2022-11-03T01:19:57.253Z,5.96
2022-11-03T01:20:17.308Z,5.97
2022-11-03T01:20:37.386Z,5.98
2022-11-03T01:20:57.443Z,5.96
2022-11-03T01:21:17.549Z,6.01
2022-11-03T01:21:37.583Z,6.02
2022-11-03T01:21:57.654Z,6.02
2022-11-03T01:22:17.714Z,6.04
2022-11-03T01:22:37.786Z,6.07
2022-11-03T01:22:57.855Z,6.11
2022-11-03T01:23:17.915Z,6.11
2022-11-03T01:23:37.977Z,6.12
2022-11-03T01:23:58.054Z,6.17
2022-11-03T01:24:18.115Z,6.15
2022-11-03T01:24:38.152Z,6.18
2022-11-03T01:24:58.239Z,6.18
2022-11-03T01:25:18.313Z,6.17
2022-11-03T01:25:38.376Z,6.18
2022-11-03T01:25:58.442Z,6.17
2022-11-03T01:26:18.503Z,6.17
2022-11-03T01:26:38.565Z,6.18
2022-11-03T01:26:58.643Z,6.18
2022-11-03T01:27:18.713Z,6.18
2022-11-03T01:27:38.771Z,6.18
2022-11-03T01:27:58.869Z,6.17
2022-11-03T01:28:18.866Z,6.18
2022-11-03T01:28:38.941Z,6.19
2022-11-03T01:28:59.012Z,6.21
2022-11-03T01:29:19.075Z,6.21
2022-11-03T01:29:39.156Z,6.17
2022-11-03T01:29:59.218Z,6.18
2022-11-03T01:30:19.275Z,6.18
2022-11-03T01:30:39.341Z,6.17
2022-11-03T01:30:59.409Z,6.17
2022-11-03T01:31:19.465Z,6.15
2022-11-03T01:31:39.526Z,6.17
2022-11-03T01:31:59.597Z,6.18
2022-11-03T01:32:19.653Z,6.17
2022-11-03T01:32:39.739Z,6.19
2022-11-03T01:32:59.780Z,6.18
2022-11-03T01:33:19.845Z,6.21
2022-11-03T01:33:39.900Z,6.18
2022-11-03T01:33:59.976Z,6.18
2022-11-03T01:34:20.037Z,6.17
2022-11-03T01:34:40.095Z,6.19
2022-11-03T01:35:00.158Z,6.18
2022-11-03T01:35:20.223Z,6.19
2022-11-03T01:35:40.300Z,6.21
2022-11-03T01:36:00.376Z,6.22
2022-11-03T01:36:20.431Z,6.21
2022-11-03T01:36:40.485Z,6.24
2022-11-03T01:37:00.539Z,6.21
2022-11-03T01:37:20.629Z,6.24
2022-11-03T01:37:40.690Z,6.24
2022-11-03T01:38:00.749Z,6.26
2022-11-03T01:38:20.785Z,6.25
2022-11-03T01:38:40.875Z,6.24
2022-11-03T01:39:00.944Z,6.24
2022-11-03T01:39:21.005Z,6.25
2022-11-03T01:39:41.189Z,6.22
2022-11-03T01:40:01.147Z,6.25
2022-11-03T01:40:21.219Z,6.24
2022-11-03T01:40:41.260Z,6.28
2022-11-03T01:41:01.328Z,6.22
2022-11-03T01:41:21.392Z,6.24
2022-11-03T01:41:41.458Z,6.24
2022-11-03T01:42:01.503Z,6.25
2022-11-03T01:42:21.595Z,6.25
2022-11-03T01:42:41.642Z,6.25
2022-11-03T01:43:01.702Z,6.26
2022-11-03T01:43:21.745Z,6.25
2022-11-03T01:43:41.822Z,6.28
2022-11-03T01:44:01.858Z,6.25
2022-11-03T01:44:21.949Z,6.28
2022-11-03T01:44:42.015Z,6.29
2022-11-03T01:45:02.066Z,6.29
2022-11-03T01:45:22.152Z,6.26
2022-11-03T01:45:42.199Z,6.25
2022-11-03T01:46:02.287Z,6.26
2022-11-03T01:46:22.345Z,6.26
2022-11-03T01:46:42.413Z,6.25
2022-11-03T01:47:02.476Z,6.25
2022-11-03T01:47:22.541Z,6.26
2022-11-03T01:47:42.592Z,6.25
2022-11-03T01:48:02.687Z,6.28
2022-11-03T01:48:22.725Z,6.31
2022-11-03T01:48:42.804Z,6.31
2022-11-03T01:49:02.879Z,6.33
2022-11-03T01:49:22.965Z,6.33
2022-11-03T01:49:43.028Z,6.33
2022-11-03T01:50:03.121Z,6.33
2022-11-03T01:50:23.195Z,6.35
2022-11-03T01:50:43.260Z,6.35
2022-11-03T01:51:03.314Z,6.35
2022-11-03T01:51:23.380Z,6.36
2022-11-03T01:51:43.474Z,6.36
2022-11-03T01:52:03.532Z,6.36
2022-11-03T01:52:23.608Z,6.38
2022-11-03T01:52:43.693Z,6.35
2022-11-03T01:53:04.013Z,6.35
2022-11-03T01:53:23.833Z,6.35
2022-11-03T01:53:43.893Z,6.35
2022-11-03T01:54:04.000Z,6.33
2022-11-03T01:54:24.061Z,6.33
2022-11-03T01:54:44.152Z,6.35
2022-11-03T01:55:04.206Z,6.35
2022-11-03T01:55:24.320Z,6.35
2022-11-03T01:55:44.396Z,6.32
2022-11-03T01:56:04.490Z,6.31
2022-11-03T01:56:24.554Z,6.33
2022-11-03T01:56:44.621Z,6.35
2022-11-03T01:57:04.674Z,6.33
2022-11-03T01:57:24.770Z,6.32
2022-11-03T01:57:44.829Z,6.33
2022-11-03T01:58:04.908Z,6.32
2022-11-03T01:58:24.985Z,6.28
2022-11-03T01:58:45.035Z,6.29
2022-11-03T01:59:05.090Z,6.29
2022-11-03T01:59:25.152Z,6.28
2022-11-03T01:59:45.200Z,6.25
2022-11-03T02:00:05.303Z,6.26
2022-11-03T02:00:25.314Z,6.26
2022-11-03T02:00:45.436Z,6.24
2022-11-03T02:01:05.554Z,6.28
2022-11-03T02:01:25.675Z,6.26
2022-11-03T02:01:45.659Z,6.25
2022-11-03T02:02:05.785Z,6.28
2022-11-03T02:02:25.773Z,6.28
2022-11-03T02:02:45.762Z,6.25
2022-11-03T02:03:06.274Z,6.24
2022-11-03T02:03:25.868Z,6.21
2022-11-03T02:03:45.935Z,6.22
2022-11-03T02:04:06.000Z,6.21
2022-11-03T02:04:26.079Z,6.19
2022-11-03T02:04:46.175Z,6.17
2022-11-03T02:05:06.226Z,6.19
2022-11-03T02:05:26.307Z,6.17
2022-11-03T02:05:46.359Z,6.18
2022-11-03T02:06:06.438Z,6.18
2022-11-03T02:06:26.516Z,6.18
2022-11-03T02:06:46.588Z,6.15
2022-11-03T02:07:06.628Z,6.15
2022-11-03T02:07:26.709Z,6.12
2022-11-03T02:07:46.845Z,6.11
2022-11-03T02:08:06.885Z,6.11
2022-11-03T02:08:26.952Z,6.1
2022-11-03T02:08:47.019Z,6.05
2022-11-03T02:09:07.063Z,6.04
2022-11-03T02:09:27.134Z,6.04
2022-11-03T02:09:47.184Z,6.05
2022-11-03T02:10:07.261Z,6.01
2022-11-03T02:10:27.365Z,6.01
2022-11-03T02:10:47.453Z,5.97
2022-11-03T02:11:07.521Z,6
2022-11-03T02:11:27.604Z,5.94
2022-11-03T02:11:47.681Z,5.97
2022-11-03T02:12:07.777Z,5.93
2022-11-03T02:12:27.833Z,5.91
2022-11-03T02:12:47.910Z,5.89
2022-11-03T02:13:08.297Z,5.89
2022-11-03T02:13:28.073Z,5.86
2022-11-03T02:13:48.154Z,5.83
2022-11-03T02:14:08.221Z,5.84
2022-11-03T02:14:28.273Z,5.77
2022-11-03T02:14:48.331Z,5.73
2022-11-03T02:15:08.427Z,5.75
2022-11-03T02:15:28.529Z,5.71
2022-11-03T02:15:48.581Z,5.67
2022-11-03T02:16:08.678Z,5.63
2022-11-03T02:16:28.755Z,5.62
2022-11-03T02:16:48.850Z,5.62
2022-11-03T02:17:08.887Z,5.57
2022-11-03T02:17:28.944Z,5.56
2022-11-03T02:17:49.015Z,5.52
2022-11-03T02:18:09.098Z,5.5
2022-11-03T02:18:29.183Z,5.49
2022-11-03T02:18:49.243Z,5.46
2022-11-03T02:19:09.310Z,5.46
2022-11-03T02:19:29.369Z,5.42
2022-11-03T02:19:49.433Z,5.41
2022-11-03T02:20:09.481Z,5.41
2022-11-03T02:20:29.544Z,5.36
2022-11-03T02:20:49.616Z,5.35
2022-11-03T02:21:09.667Z,5.31
2022-11-03T02:21:29.727Z,5.31
2022-11-03T02:21:49.778Z,5.29
2022-11-03T02:22:09.838Z,5.25
2022-11-03T02:22:29.907Z,5.25
2022-11-03T02:22:49.961Z,5.25
2022-11-03T02:23:10.324Z,5.19
2022-11-03T02:23:30.078Z,5.16
2022-11-03T02:23:50.139Z,5.16
2022-11-03T02:24:10.182Z,5.15
2022-11-03T02:24:30.249Z,5.12
2022-11-03T02:24:53.951Z,5.11
2022-11-03T02:25:10.365Z,5.11
2022-11-03T02:25:30.431Z,5.08
2022-11-03T02:25:50.498Z,5.05
2022-11-03T02:26:10.555Z,5.05
2022-11-03T02:26:30.606Z,5.02
2022-11-03T02:26:50.665Z,5.02
2022-11-03T02:27:10.726Z,4.99
2022-11-03T02:27:30.800Z,4.99
2022-11-03T02:27:50.859Z,4.96
2022-11-03T02:28:10.918Z,4.96
2022-11-03T02:28:30.964Z,4.94
2022-11-03T02:28:51.036Z,4.94
2022-11-03T02:29:11.123Z,4.9
2022-11-03T02:29:31.173Z,4.88
2022-11-03T02:29:51.227Z,4.88
2022-11-03T02:30:11.275Z,4.88
2022-11-03T02:30:31.347Z,4.87
2022-11-03T02:30:51.395Z,4.87
2022-11-03T02:31:11.451Z,4.85
2022-11-03T02:31:31.522Z,4.84
2022-11-03T02:31:51.590Z,4.85
2022-11-03T02:32:11.644Z,4.84
2022-11-03T02:32:31.707Z,4.81
2022-11-03T02:32:51.760Z,4.81
2022-11-03T02:33:11.847Z,4.78
2022-11-03T02:33:31.887Z,4.8
2022-11-03T02:33:51.918Z,4.78
2022-11-03T02:34:12.021Z,4.75
2022-11-03T02:34:32.069Z,4.73
2022-11-03T02:34:52.138Z,4.74
2022-11-03T02:35:12.194Z,4.71
2022-11-03T02:35:32.260Z,4.7
2022-11-03T02:35:52.295Z,4.67
2022-11-03T02:36:12.379Z,4.68
2022-11-03T02:36:32.436Z,4.68
2022-11-03T02:36:52.503Z,4.61
2022-11-03T02:37:12.567Z,4.64
2022-11-03T02:37:32.628Z,4.61
2022-11-03T02:37:52.687Z,4.6
2022-11-03T02:38:12.763Z,4.59
2022-11-03T02:38:32.794Z,4.6
2022-11-03T02:38:52.869Z,4.59
2022-11-03T02:39:12.928Z,4.57
2022-11-03T02:39:32.971Z,4.59
2022-11-03T02:39:53.049Z,4.57
2022-11-03T02:40:13.093Z,4.57
2022-11-03T02:40:33.156Z,4.53
2022-11-03T02:40:53.214Z,4.54
2022-11-03T02:41:13.277Z,4.54
2022-11-03T02:41:33.353Z,4.5
2022-11-03T02:41:53.396Z,4.54
2022-11-03T02:42:13.474Z,4.5
2022-11-03T02:42:33.533Z,4.5
2022-11-03T02:42:53.575Z,4.49
2022-11-03T02:43:13.646Z,4.49
2022-11-03T02:43:33.670Z,4.46
2022-11-03T02:43:53.737Z,4.44
2022-11-03T02:44:13.840Z,4.43
2022-11-03T02:44:33.898Z,4.43
2022-11-03T02:44:53.941Z,4.43
2022-11-03T02:45:17.308Z,4.42
2022-11-03T02:45:34.071Z,4.43
2022-11-03T02:45:54.138Z,4.43
2022-11-03T02:46:14.231Z,4.42
2022-11-03T02:46:34.268Z,4.42
2022-11-03T02:46:54.327Z,4.43
2022-11-03T02:47:14.397Z,4.44
2022-11-03T02:47:34.453Z,4.44
2022-11-03T02:47:54.517Z,4.42
2022-11-03T02:48:14.576Z,4.43
2022-11-03T02:48:34.626Z,4.43
2022-11-03T02:48:54.740Z,4.42
2022-11-03T02:49:14.773Z,4.43
2022-11-03T02:49:34.829Z,4.43
2022-11-03T02:50:14.936Z,4.4
2022-11-03T02:50:34.999Z,4.42
2022-11-03T02:50:55.058Z,4.4
2022-11-03T02:51:15.112Z,4.42
2022-11-03T02:51:35.175Z,4.4
2022-11-03T02:51:55.238Z,4.37
2022-11-03T02:52:15.294Z,4.37
2022-11-03T02:52:35.376Z,4.37
2022-11-03T02:52:55.426Z,4.36
2022-11-03T02:53:15.489Z,4.36
2022-11-03T02:53:35.562Z,4.36
2022-11-03T02:53:55.621Z,4.36
2022-11-03T02:54:15.668Z,4.37
2022-11-03T02:54:35.767Z,4.39
2022-11-03T02:54:55.789Z,4.39
2022-11-03T02:55:15.831Z,4.4
2022-11-03T02:55:35.893Z,4.4
2022-11-03T02:55:55.956Z,4.42
2022-11-03T02:56:16.022Z,4.39
2022-11-03T02:56:36.087Z,4.39
2022-11-03T02:56:56.152Z,4.37
2022-11-03T02:57:16.197Z,4.37
2022-11-03T02:57:36.277Z,4.37
2022-11-03T02:57:56.334Z,4.37
2022-11-03T02:58:16.400Z,4.33
2022-11-03T02:58:36.445Z,4.36
2022-11-03T02:58:56.522Z,4.35
2022-11-03T02:59:16.566Z,4.36
2022-11-03T02:59:36.630Z,4.36
2022-11-03T02:59:56.679Z,4.32
2022-11-03T03:00:16.728Z,4.35
2022-11-03T03:00:36.818Z,4.29
2022-11-03T03:00:56.961Z,4.3
2022-11-03T03:01:17.112Z,4.29
2022-11-03T03:01:37.329Z,4.28
2022-11-03T03:01:57.354Z,4.28
2022-11-03T03:02:17.171Z,4.3
2022-11-03T03:02:37.251Z,4.26
2022-11-03T03:02:57.250Z,4.28
2022-11-03T03:03:17.303Z,4.25
2022-11-03T03:03:37.365Z,4.28
2022-11-03T03:03:57.441Z,4.28
2022-11-03T03:04:17.495Z,4.26
2022-11-03T03:04:37.507Z,4.26
2022-11-03T03:04:57.561Z,4.25
2022-11-03T03:05:17.621Z,4.28
2022-11-03T03:05:37.689Z,4.25
2022-11-03T03:05:57.751Z,4.26
2022-11-03T03:06:17.800Z,4.26
2022-11-03T03:06:37.865Z,4.26
2022-11-03T03:06:57.960Z,4.26
2022-11-03T03:07:18.012Z,4.26
2022-11-03T03:07:38.056Z,4.26
2022-11-03T03:07:58.145Z,4.26
2022-11-03T03:08:18.204Z,4.28
2022-11-03T03:08:38.267Z,4.25
2022-11-03T03:08:58.325Z,4.25
2022-11-03T03:09:18.360Z,4.26
2022-11-03T03:09:38.431Z,4.26
2022-11-03T03:09:58.491Z,4.25
2022-11-03T03:10:18.547Z,4.23
2022-11-03T03:10:38.607Z,4.26
2022-11-03T03:10:58.668Z,4.25
2022-11-03T03:11:18.731Z,4.25
2022-11-03T03:11:39.400Z,4.23
2022-11-03T03:11:58.837Z,4.23
2022-11-03T03:12:18.882Z,4.23
2022-11-03T03:12:38.952Z,4.23
2022-11-03T03:12:59.017Z,4.26
2022-11-03T03:13:19.081Z,4.26
2022-11-03T03:13:39.172Z,4.26
2022-11-03T03:13:59.240Z,4.28
2022-11-03T03:14:19.282Z,4.26
2022-11-03T03:14:39.335Z,4.26
2022-11-03T03:14:59.394Z,4.25
2022-11-03T03:15:19.464Z,4.26
2022-11-03T03:15:39.542Z,4.26
2022-11-03T03:15:59.610Z,4.25
2022-11-03T03:16:19.653Z,4.25
2022-11-03T03:16:39.715Z,4.25
2022-11-03T03:16:59.762Z,4.23
2022-11-03T03:17:19.828Z,4.25
2022-11-03T03:17:39.897Z,4.25
2022-11-03T03:17:59.948Z,4.22
2022-11-03T03:18:20.008Z,4.23
2022-11-03T03:18:40.063Z,4.22
2022-11-03T03:19:00.120Z,4.22
2022-11-03T03:19:20.191Z,4.19
2022-11-03T03:19:40.250Z,4.2
2022-11-03T03:20:00.311Z,4.19
2022-11-03T03:20:20.373Z,4.17
2022-11-03T03:20:40.438Z,4.19
2022-11-03T03:21:00.498Z,4.12
2022-11-03T03:21:20.540Z,4.17
2022-11-03T03:21:40.624Z,4.16
2022-11-03T03:22:00.696Z,4.16
2022-11-03T03:22:20.742Z,4.15
2022-11-03T03:22:40.817Z,4.17
2022-11-03T03:23:00.865Z,4.13
2022-11-03T03:23:20.922Z,4.16
2022-11-03T03:23:40.984Z,4.15
2022-11-03T03:24:01.026Z,4.12
2022-11-03T03:24:21.087Z,4.13
2022-11-03T03:24:41.156Z,4.12
2022-11-03T03:25:01.221Z,4.1
2022-11-03T03:25:21.273Z,4.09
2022-11-03T03:25:41.348Z,4.09
2022-11-03T03:26:01.403Z,4.1
2022-11-03T03:26:21.470Z,4.09
2022-11-03T03:26:41.548Z,4.1
2022-11-03T03:27:01.600Z,4.1
2022-11-03T03:27:21.658Z,4.08
2022-11-03T03:27:41.697Z,4.09
2022-11-03T03:28:01.793Z,4.09
2022-11-03T03:28:21.864Z,4.08
2022-11-03T03:28:41.918Z,4.08
2022-11-03T03:29:01.972Z,4.08
2022-11-03T03:29:22.032Z,4.09
2022-11-03T03:29:42.103Z,4.08
2022-11-03T03:30:02.168Z,4.08
2022-11-03T03:30:22.221Z,4.05
2022-11-03T03:30:42.297Z,4.05
2022-11-03T03:31:02.361Z,4.06
2022-11-03T03:31:22.418Z,4.06
2022-11-03T03:31:42.479Z,4.04
2022-11-03T03:32:02.502Z,4.06
2022-11-03T03:32:22.589Z,4.08
2022-11-03T03:32:42.648Z,4.08
2022-11-03T03:33:02.715Z,4.06
2022-11-03T03:33:22.833Z,4.09
2022-11-03T03:33:46.565Z,4.08
2022-11-03T03:34:23.668Z,4.09
2022-11-03T03:34:34.775Z,4.06
2022-11-03T03:34:43.013Z,4.08
2022-11-03T03:35:03.073Z,4.06
2022-11-03T03:35:23.151Z,4.06
2022-11-03T03:35:43.191Z,4.06
2022-11-03T03:36:03.269Z,4.06
2022-11-03T03:36:23.313Z,4.06
2022-11-03T03:36:43.366Z,4.06
2022-11-03T03:37:03.424Z,4.05
2022-11-03T03:37:23.496Z,4.05
2022-11-03T03:37:43.563Z,4.08
2022-11-03T03:38:03.981Z,4.06
2022-11-03T03:38:23.672Z,4.06
2022-11-03T03:38:43.740Z,4.08
2022-11-03T03:39:03.787Z,4.09
2022-11-03T03:39:23.845Z,4.06
2022-11-03T03:39:43.929Z,4.06
2022-11-03T03:40:03.966Z,4.08
2022-11-03T03:40:24.028Z,4.08
2022-11-03T03:40:44.095Z,4.05
2022-11-03T03:41:09.525Z,4.06
2022-11-03T03:41:24.229Z,4.05
2022-11-03T03:41:44.287Z,4.08
2022-11-03T03:42:04.353Z,4.06
2022-11-03T03:42:24.400Z,4.08
2022-11-03T03:42:44.449Z,4.08
2022-11-03T03:43:04.531Z,4.08
2022-11-03T03:43:24.566Z,4.08
2022-11-03T03:43:44.663Z,4.09
2022-11-03T03:44:04.733Z,4.09
2022-11-03T03:44:24.804Z,4.08
2022-11-03T03:44:44.847Z,4.06
2022-11-03T03:45:04.907Z,4.06
2022-11-03T03:45:24.962Z,4.09
2022-11-03T03:45:45.029Z,4.08
2022-11-03T03:46:05.069Z,4.08
2022-11-03T03:46:25.127Z,4.09
2022-11-03T03:46:45.199Z,4.06
2022-11-03T03:47:05.266Z,4.08
2022-11-03T03:47:25.323Z,4.05
2022-11-03T03:47:45.383Z,4.06
2022-11-03T03:48:05.434Z,4.06
2022-11-03T03:48:25.469Z,4.08
2022-11-03T03:48:45.544Z,4.06
2022-11-03T03:49:05.614Z,4.09
2022-11-03T03:49:25.706Z,4.04
2022-11-03T03:49:45.768Z,4.04
2022-11-03T03:50:05.835Z,4.06
2022-11-03T03:50:25.889Z,4.05
2022-11-03T03:50:45.965Z,4.05
2022-11-03T03:51:06.017Z,4.04
2022-11-03T03:51:26.085Z,4.04
2022-11-03T03:51:46.140Z,4.04
2022-11-03T03:52:06.197Z,4.04
2022-11-03T03:52:26.254Z,4.02
2022-11-03T03:52:46.324Z,4.02
2022-11-03T03:53:06.398Z,4.04
2022-11-03T03:53:26.436Z,4.01
2022-11-03T03:53:46.490Z,4.02
2022-11-03T03:54:06.554Z,4.01
2022-11-03T03:54:26.606Z,4.01
2022-11-03T03:54:46.667Z,4.02
2022-11-03T03:55:06.730Z,4.02
2022-11-03T03:55:26.788Z,4.02
2022-11-03T03:55:46.882Z,4.02
2022-11-03T03:56:06.949Z,4.01
2022-11-03T03:56:27.004Z,4.02
2022-11-03T03:56:47.089Z,4.01
2022-11-03T03:57:07.166Z,4.04
2022-11-03T03:57:27.205Z,4.02
2022-11-03T03:57:47.272Z,4.01
2022-11-03T03:58:07.676Z,4.02
2022-11-03T03:58:27.378Z,4.05
2022-11-03T03:58:47.457Z,4.02
2022-11-03T03:59:07.511Z,4.02
2022-11-03T03:59:27.572Z,4.02
2022-11-03T03:59:47.625Z,4.02
2022-11-03T04:00:07.679Z,4.02
2022-11-03T04:00:27.764Z,4.02
2022-11-03T04:00:47.867Z,4.01
2022-11-03T04:01:07.927Z,4.04
2022-11-03T04:01:28.149Z,4.02
2022-11-03T04:01:48.183Z,4.04
2022-11-03T04:02:08.200Z,4.02
2022-11-03T04:02:28.258Z,4.04
2022-11-03T04:02:48.190Z,4.02
2022-11-03T04:03:08.232Z,4.04
2022-11-03T04:03:28.289Z,4.04
2022-11-03T04:03:48.368Z,4.04
2022-11-03T04:04:08.425Z,4.01
2022-11-03T04:04:28.484Z,3.99
2022-11-03T04:04:48.556Z,3.99
2022-11-03T04:05:08.613Z,3.99
2022-11-03T04:05:28.649Z,4.01
2022-11-03T04:05:48.698Z,4.01
2022-11-03T04:06:08.789Z,3.99
2022-11-03T04:06:28.872Z,4.01
2022-11-03T04:06:48.943Z,3.99
2022-11-03T04:07:09.001Z,3.98
2022-11-03T04:07:29.064Z,3.98
2022-11-03T04:07:49.129Z,3.98
2022-11-03T04:08:09.338Z,3.98
2022-11-03T04:08:29.237Z,3.98
2022-11-03T04:08:49.302Z,3.98
2022-11-03T04:09:09.362Z,3.98
2022-11-03T04:09:29.446Z,3.98
2022-11-03T04:09:49.485Z,3.95
2022-11-03T04:10:09.554Z,3.96
2022-11-03T04:10:29.620Z,3.96
2022-11-03T04:10:49.678Z,3.94
2022-11-03T04:11:09.742Z,3.94
2022-11-03T04:11:29.793Z,3.94
2022-11-03T04:11:49.849Z,3.94
2022-11-03T04:12:09.917Z,3.94
2022-11-03T04:12:29.963Z,3.95
2022-11-03T04:12:50.030Z,3.91
2022-11-03T04:13:10.092Z,3.92
2022-11-03T04:13:30.160Z,3.91
2022-11-03T04:13:50.199Z,3.92
2022-11-03T04:14:10.263Z,3.92
2022-11-03T04:14:30.320Z,3.91
2022-11-03T04:14:50.418Z,3.91
2022-11-03T04:15:10.451Z,3.91
2022-11-03T04:15:30.504Z,3.88
2022-11-03T04:15:50.591Z,3.88
2022-11-03T04:16:10.640Z,3.88
2022-11-03T04:16:30.714Z,3.89
2022-11-03T04:16:50.752Z,3.91
2022-11-03T04:17:10.774Z,3.89
2022-11-03T04:17:30.871Z,3.88
2022-11-03T04:17:50.932Z,3.89
2022-11-03T04:18:11.000Z,3.91
2022-11-03T04:18:31.056Z,3.89
2022-11-03T04:18:51.115Z,3.91
2022-11-03T04:19:11.179Z,3.92
2022-11-03T04:19:31.236Z,3.92
2022-11-03T04:19:51.303Z,3.91
2022-11-03T04:20:11.354Z,3.91
2022-11-03T04:20:31.404Z,3.89
2022-11-03T04:20:51.482Z,3.91
2022-11-03T04:21:11.547Z,3.89
2022-11-03T04:21:31.626Z,3.91
2022-11-03T04:21:51.666Z,3.92
2022-11-03T04:22:11.716Z,3.91
2022-11-03T04:22:31.786Z,3.92
2022-11-03T04:22:51.827Z,3.89
2022-11-03T04:23:11.873Z,3.91
2022-11-03T04:23:31.944Z,3.89
2022-11-03T04:23:52.011Z,3.89
2022-11-03T04:24:12.077Z,3.88
2022-11-03T04:24:32.127Z,3.89
2022-11-03T04:24:52.193Z,3.87
2022-11-03T04:25:12.250Z,3.89
2022-11-03T04:25:32.311Z,3.88
2022-11-03T04:25:52.364Z,3.87
2022-11-03T04:26:12.419Z,3.85
2022-11-03T04:26:32.488Z,3.87
2022-11-03T04:26:52.539Z,3.85
2022-11-03T04:27:12.591Z,3.85
2022-11-03T04:27:32.658Z,3.84
2022-11-03T04:27:52.715Z,3.84